Abney, South Carolina
Current Conditions -  °F | °C
As of 10:15 AM on Sunday 21 Dec 2014 (Local Time) from KCDN Reporting Station
Broken Clouds Broken Clouds  
Wind Chill:   Ceiling: 5000
Heat Index:   Visibility: 7mi
Dew Point:   Wind: 5mph
Humidity: 76%   Direction: 50°NE
Pressure: 30.31"   Gusts: NA
Location:  34.5438°N, 80.5351°W
Report Text: KCDN 211515Z AUTO 05004KT 7SM FEW036 BKN050 BKN080 05/01 A3031 RMK AO2 TSNO
Loading
Personal Weather Stations






























Interactive Weather Map New forecast layout! Learn more

10-Day Weather Forecast

Advertisements
Track Severe Weather on mobile